sensor_id;sensor_type;location;lat;lon;timestamp;P1;durP1;ratioP1;P2;durP2;ratioP2
4500;SDS011;2263;54.654;9.410;2023-04-25T00:00:56;7.03;;;4.03;;
4500;SDS011;2263;54.654;9.410;2023-04-25T00:03:24;8.13;;;4.00;;
4500;SDS011;2263;54.654;9.410;2023-04-25T00:05:52;16.13;;;3.03;;
4500;SDS011;2263;54.654;9.410;2023-04-25T00:08:20;8.77;;;3.93;;
4500;SDS011;2263;54.654;9.410;2023-04-25T00:10:47;14.43;;;3.63;;
4500;SDS011;2263;54.654;9.410;2023-04-25T00:13:15;11.50;;;3.73;;
4500;SDS011;2263;54.654;9.410;2023-04-25T00:15:44;16.50;;;2.93;;
4500;SDS011;2263;54.654;9.410;2023-04-25T00:18:14;11.33;;;4.27;;
4500;SDS011;2263;54.654;9.410;2023-04-25T00:20:42;8.70;;;3.17;;
4500;SDS011;2263;54.654;9.410;2023-04-25T00:23:13;16.20;;;3.43;;
4500;SDS011;2263;54.654;9.410;2023-04-25T00:25:45;10.63;;;3.77;;
4500;SDS011;2263;54.654;9.410;2023-04-25T00:28:13;14.03;;;3.40;;
4500;SDS011;2263;54.654;9.410;2023-04-25T00:30:42;14.27;;;4.30;;
4500;SDS011;2263;54.654;9.410;2023-04-25T00:33:10;15.23;;;4.70;;
4500;SDS011;2263;54.654;9.410;2023-04-25T00:35:37;12.73;;;3.23;;
4500;SDS011;2263;54.654;9.410;2023-04-25T00:38:05;9.50;;;3.40;;
4500;SDS011;2263;54.654;9.410;2023-04-25T00:40:33;7.27;;;2.90;;
4500;SDS011;2263;54.654;9.410;2023-04-25T00:43:00;8.10;;;3.40;;
4500;SDS011;2263;54.654;9.410;2023-04-25T00:45:28;8.13;;;2.73;;
4500;SDS011;2263;54.654;9.410;2023-04-25T00:47:56;9.67;;;4.10;;
4500;SDS011;2263;54.654;9.410;2023-04-25T00:50:24;9.80;;;3.37;;
4500;SDS011;2263;54.654;9.410;2023-04-25T00:52:52;7.87;;;5.00;;
4500;SDS011;2263;54.654;9.410;2023-04-25T00:55:19;9.93;;;3.07;;
4500;SDS011;2263;54.654;9.410;2023-04-25T00:57:47;13.40;;;3.77;;
4500;SDS011;2263;54.654;9.410;2023-04-25T01:00:16;16.73;;;4.07;;
4500;SDS011;2263;54.654;9.410;2023-04-25T01:02:44;11.20;;;3.60;;
4500;SDS011;2263;54.654;9.410;2023-04-25T01:05:13;15.10;;;2.93;;
4500;SDS011;2263;54.654;9.410;2023-04-25T01:07:41;17.53;;;3.60;;
4500;SDS011;2263;54.654;9.410;2023-04-25T01:10:09;14.13;;;2.97;;
4500;SDS011;2263;54.654;9.410;2023-04-25T01:12:37;8.77;;;3.03;;
4500;SDS011;2263;54.654;9.410;2023-04-25T01:15:04;14.80;;;2.40;;
4500;SDS011;2263;54.654;9.410;2023-04-25T01:17:34;6.93;;;2.87;;
4500;SDS011;2263;54.654;9.410;2023-04-25T01:20:03;10.50;;;3.10;;
4500;SDS011;2263;54.654;9.410;2023-04-25T01:22:32;13.43;;;3.50;;
4500;SDS011;2263;54.654;9.410;2023-04-25T01:25:00;13.13;;;3.10;;
4500;SDS011;2263;54.654;9.410;2023-04-25T01:27:27;12.83;;;4.00;;
4500;SDS011;2263;54.654;9.410;2023-04-25T01:33:55;11.43;;;2.87;;
4500;SDS011;2263;54.654;9.410;2023-04-25T01:36:23;10.97;;;3.70;;
4500;SDS011;2263;54.654;9.410;2023-04-25T01:38:50;9.40;;;3.40;;
4500;SDS011;2263;54.654;9.410;2023-04-25T01:41:19;10.60;;;3.83;;
4500;SDS011;2263;54.654;9.410;2023-04-25T01:43:48;10.30;;;3.50;;
4500;SDS011;2263;54.654;9.410;2023-04-25T01:46:16;8.40;;;3.37;;
4500;SDS011;2263;54.654;9.410;2023-04-25T01:48:44;13.27;;;3.17;;
4500;SDS011;2263;54.654;9.410;2023-04-25T01:51:12;15.10;;;4.40;;
4500;SDS011;2263;54.654;9.410;2023-04-25T01:53:40;12.27;;;5.17;;
4500;SDS011;2263;54.654;9.410;2023-04-25T01:56:09;10.23;;;4.17;;
4500;SDS011;2263;54.654;9.410;2023-04-25T01:58:36;9.77;;;4.27;;
4500;SDS011;2263;54.654;9.410;2023-04-25T02:01:04;17.37;;;5.73;;
4500;SDS011;2263;54.654;9.410;2023-04-25T02:03:32;11.40;;;3.50;;
4500;SDS011;2263;54.654;9.410;2023-04-25T02:06:00;12.37;;;3.67;;
4500;SDS011;2263;54.654;9.410;2023-04-25T02:08:27;10.77;;;3.13;;
4500;SDS011;2263;54.654;9.410;2023-04-25T02:14:43;8.77;;;3.13;;
4500;SDS011;2263;54.654;9.410;2023-04-25T02:17:10;7.03;;;3.43;;
4500;SDS011;2263;54.654;9.410;2023-04-25T02:19:39;11.77;;;4.37;;
4500;SDS011;2263;54.654;9.410;2023-04-25T02:22:06;12.33;;;3.03;;
4500;SDS011;2263;54.654;9.410;2023-04-25T02:24:34;14.50;;;3.47;;
4500;SDS011;2263;54.654;9.410;2023-04-25T02:27:02;11.37;;;3.33;;
4500;SDS011;2263;54.654;9.410;2023-04-25T02:29:29;14.53;;;3.50;;
4500;SDS011;2263;54.654;9.410;2023-04-25T02:31:57;12.97;;;3.90;;
4500;SDS011;2263;54.654;9.410;2023-04-25T02:34:24;9.03;;;4.33;;
4500;SDS011;2263;54.654;9.410;2023-04-25T02:36:52;10.23;;;3.20;;
4500;SDS011;2263;54.654;9.410;2023-04-25T02:39:19;15.23;;;4.43;;
4500;SDS011;2263;54.654;9.410;2023-04-25T02:41:48;13.20;;;3.73;;
4500;SDS011;2263;54.654;9.410;2023-04-25T02:44:16;16.40;;;4.50;;
4500;SDS011;2263;54.654;9.410;2023-04-25T02:46:43;18.13;;;3.47;;
4500;SDS011;2263;54.654;9.410;2023-04-25T02:49:11;16.40;;;4.00;;
4500;SDS011;2263;54.654;9.410;2023-04-25T02:51:38;24.13;;;4.23;;
4500;SDS011;2263;54.654;9.410;2023-04-25T02:54:06;18.57;;;4.20;;
4500;SDS011;2263;54.654;9.410;2023-04-25T02:56:34;8.13;;;2.70;;
4500;SDS011;2263;54.654;9.410;2023-04-25T02:59:01;10.80;;;3.80;;
4500;SDS011;2263;54.654;9.410;2023-04-25T03:01:29;10.13;;;3.87;;
4500;SDS011;2263;54.654;9.410;2023-04-25T03:03:56;9.77;;;3.30;;
4500;SDS011;2263;54.654;9.410;2023-04-25T03:06:24;9.60;;;3.60;;
4500;SDS011;2263;54.654;9.410;2023-04-25T03:08:51;24.77;;;3.47;;
4500;SDS011;2263;54.654;9.410;2023-04-25T03:11:19;9.10;;;3.33;;
4500;SDS011;2263;54.654;9.410;2023-04-25T03:49:59;16.97;;;3.10;;
4500;SDS011;2263;54.654;9.410;2023-04-25T03:52:29;11.57;;;3.13;;
4500;SDS011;2263;54.654;9.410;2023-04-25T03:59:02;8.20;;;2.97;;
4500;SDS011;2263;54.654;9.410;2023-04-25T04:01:30;13.80;;;3.73;;
4500;SDS011;2263;54.654;9.410;2023-04-25T04:03:58;8.67;;;2.93;;
4500;SDS011;2263;54.654;9.410;2023-04-25T04:06:26;8.43;;;2.90;;
4500;SDS011;2263;54.654;9.410;2023-04-25T04:08:53;10.33;;;2.83;;
4500;SDS011;2263;54.654;9.410;2023-04-25T04:11:22;10.73;;;5.13;;
4500;SDS011;2263;54.654;9.410;2023-04-25T04:13:49;14.87;;;2.90;;
4500;SDS011;2263;54.654;9.410;2023-04-25T04:16:17;11.10;;;3.40;;
4500;SDS011;2263;54.654;9.410;2023-04-25T04:18:45;14.03;;;4.10;;
4500;SDS011;2263;54.654;9.410;2023-04-25T04:21:13;14.77;;;4.13;;
4500;SDS011;2263;54.654;9.410;2023-04-25T04:23:41;12.57;;;3.47;;
4500;SDS011;2263;54.654;9.410;2023-04-25T04:26:09;10.03;;;2.67;;
4500;SDS011;2263;54.654;9.410;2023-04-25T04:28:39;10.50;;;3.90;;
4500;SDS011;2263;54.654;9.410;2023-04-25T04:31:06;12.90;;;3.27;;
4500;SDS011;2263;54.654;9.410;2023-04-25T04:33:34;9.23;;;2.80;;
4500;SDS011;2263;54.654;9.410;2023-04-25T04:36:03;17.33;;;4.80;;
4500;SDS011;2263;54.654;9.410;2023-04-25T04:38:34;8.87;;;2.73;;
4500;SDS011;2263;54.654;9.410;2023-04-25T04:41:05;13.73;;;3.73;;
4500;SDS011;2263;54.654;9.410;2023-04-25T04:43:33;9.33;;;3.33;;
4500;SDS011;2263;54.654;9.410;2023-04-25T04:46:00;28.43;;;4.47;;
4500;SDS011;2263;54.654;9.410;2023-04-25T04:48:33;8.73;;;3.10;;
4500;SDS011;2263;54.654;9.410;2023-04-25T04:51:01;12.97;;;3.10;;
4500;SDS011;2263;54.654;9.410;2023-04-25T04:53:28;8.47;;;3.80;;
4500;SDS011;2263;54.654;9.410;2023-04-25T04:55:56;6.50;;;3.53;;
4500;SDS011;2263;54.654;9.410;2023-04-25T04:58:23;14.70;;;3.33;;
4500;SDS011;2263;54.654;9.410;2023-04-25T05:00:51;7.90;;;2.37;;
4500;SDS011;2263;54.654;9.410;2023-04-25T05:03:19;8.13;;;3.50;;
4500;SDS011;2263;54.654;9.410;2023-04-25T05:05:47;10.97;;;3.43;;
4500;SDS011;2263;54.654;9.410;2023-04-25T05:08:14;8.97;;;3.00;;
4500;SDS011;2263;54.654;9.410;2023-04-25T05:10:42;8.97;;;3.47;;
4500;SDS011;2263;54.654;9.410;2023-04-25T05:13:09;4.90;;;2.87;;
4500;SDS011;2263;54.654;9.410;2023-04-25T05:15:37;8.93;;;2.60;;
4500;SDS011;2263;54.654;9.410;2023-04-25T05:18:04;14.07;;;2.90;;
4500;SDS011;2263;54.654;9.410;2023-04-25T05:20:32;7.83;;;2.73;;
4500;SDS011;2263;54.654;9.410;2023-04-25T05:22:59;14.67;;;3.40;;
4500;SDS011;2263;54.654;9.410;2023-04-25T05:25:28;10.77;;;3.20;;
4500;SDS011;2263;54.654;9.410;2023-04-25T05:27:59;8.10;;;2.53;;
4500;SDS011;2263;54.654;9.410;2023-04-25T05:30:26;5.23;;;2.43;;
4500;SDS011;2263;54.654;9.410;2023-04-25T05:32:54;4.50;;;2.60;;
4500;SDS011;2263;54.654;9.410;2023-04-25T05:35:22;14.00;;;3.77;;
4500;SDS011;2263;54.654;9.410;2023-04-25T05:37:50;13.73;;;3.70;;
4500;SDS011;2263;54.654;9.410;2023-04-25T05:40:17;7.60;;;2.73;;
4500;SDS011;2263;54.654;9.410;2023-04-25T05:42:45;7.93;;;2.60;;
4500;SDS011;2263;54.654;9.410;2023-04-25T05:45:12;10.97;;;2.70;;
4500;SDS011;2263;54.654;9.410;2023-04-25T05:47:40;9.90;;;3.87;;
4500;SDS011;2263;54.654;9.410;2023-04-25T05:50:08;11.27;;;4.33;;
4500;SDS011;2263;54.654;9.410;2023-04-25T05:52:35;10.60;;;3.83;;
4500;SDS011;2263;54.654;9.410;2023-04-25T05:55:03;16.37;;;3.90;;
4500;SDS011;2263;54.654;9.410;2023-04-25T05:57:31;7.73;;;2.80;;
4500;SDS011;2263;54.654;9.410;2023-04-25T05:59:58;68.37;;;31.77;;
4500;SDS011;2263;54.654;9.410;2023-04-25T06:02:26;56.87;;;25.97;;
4500;SDS011;2263;54.654;9.410;2023-04-25T06:04:54;64.97;;;32.13;;
4500;SDS011;2263;54.654;9.410;2023-04-25T06:07:24;69.33;;;29.80;;
4500;SDS011;2263;54.654;9.410;2023-04-25T06:09:54;42.90;;;23.33;;
4500;SDS011;2263;54.654;9.410;2023-04-25T06:12:21;52.37;;;23.50;;
4500;SDS011;2263;54.654;9.410;2023-04-25T06:14:49;54.90;;;20.43;;
4500;SDS011;2263;54.654;9.410;2023-04-25T06:17:17;47.13;;;17.43;;
4500;SDS011;2263;54.654;9.410;2023-04-25T06:19:44;36.80;;;15.27;;
4500;SDS011;2263;54.654;9.410;2023-04-25T06:22:12;36.07;;;15.27;;
4500;SDS011;2263;54.654;9.410;2023-04-25T06:24:39;31.00;;;14.73;;
4500;SDS011;2263;54.654;9.410;2023-04-25T06:27:07;29.83;;;13.07;;
4500;SDS011;2263;54.654;9.410;2023-04-25T06:29:34;32.33;;;15.40;;
4500;SDS011;2263;54.654;9.410;2023-04-25T06:32:02;20.27;;;8.63;;
4500;SDS011;2263;54.654;9.410;2023-04-25T06:34:30;18.13;;;9.03;;
4500;SDS011;2263;54.654;9.410;2023-04-25T06:36:57;19.83;;;8.30;;
4500;SDS011;2263;54.654;9.410;2023-04-25T06:39:25;21.07;;;8.37;;
4500;SDS011;2263;54.654;9.410;2023-04-25T06:41:52;11.40;;;6.77;;
4500;SDS011;2263;54.654;9.410;2023-04-25T06:44:20;20.33;;;8.43;;
4500;SDS011;2263;54.654;9.410;2023-04-25T06:46:49;17.20;;;6.30;;
4500;SDS011;2263;54.654;9.410;2023-04-25T06:49:17;17.93;;;6.87;;
4500;SDS011;2263;54.654;9.410;2023-04-25T06:51:45;18.67;;;6.70;;
4500;SDS011;2263;54.654;9.410;2023-04-25T06:54:12;13.60;;;6.67;;
4500;SDS011;2263;54.654;9.410;2023-04-25T06:56:40;17.67;;;5.43;;
4500;SDS011;2263;54.654;9.410;2023-04-25T06:59:08;16.03;;;5.43;;
4500;SDS011;2263;54.654;9.410;2023-04-25T07:01:35;9.67;;;3.53;;
4500;SDS011;2263;54.654;9.410;2023-04-25T07:04:03;6.77;;;4.30;;
4500;SDS011;2263;54.654;9.410;2023-04-25T07:06:32;10.17;;;3.67;;
4500;SDS011;2263;54.654;9.410;2023-04-25T07:08:59;8.80;;;3.40;;
4500;SDS011;2263;54.654;9.410;2023-04-25T07:11:27;7.23;;;3.30;;
4500;SDS011;2263;54.654;9.410;2023-04-25T07:13:54;10.80;;;5.13;;
4500;SDS011;2263;54.654;9.410;2023-04-25T07:16:22;12.73;;;3.63;;
4500;SDS011;2263;54.654;9.410;2023-04-25T07:18:50;5.77;;;3.07;;
4500;SDS011;2263;54.654;9.410;2023-04-25T07:21:18;6.73;;;3.07;;
4500;SDS011;2263;54.654;9.410;2023-04-25T07:23:46;9.80;;;3.60;;
4500;SDS011;2263;54.654;9.410;2023-04-25T07:26:13;5.33;;;3.07;;
4500;SDS011;2263;54.654;9.410;2023-04-25T07:28:41;10.20;;;3.20;;
4500;SDS011;2263;54.654;9.410;2023-04-25T07:31:10;12.23;;;3.20;;
4500;SDS011;2263;54.654;9.410;2023-04-25T07:33:37;11.03;;;3.90;;
4500;SDS011;2263;54.654;9.410;2023-04-25T07:36:05;12.53;;;3.60;;
4500;SDS011;2263;54.654;9.410;2023-04-25T07:38:33;8.30;;;3.03;;
4500;SDS011;2263;54.654;9.410;2023-04-25T07:41:00;6.80;;;2.90;;
4500;SDS011;2263;54.654;9.410;2023-04-25T07:43:28;7.40;;;2.30;;
4500;SDS011;2263;54.654;9.410;2023-04-25T07:45:56;7.30;;;1.97;;
4500;SDS011;2263;54.654;9.410;2023-04-25T07:48:24;6.13;;;3.00;;
4500;SDS011;2263;54.654;9.410;2023-04-25T07:50:51;10.37;;;3.20;;
4500;SDS011;2263;54.654;9.410;2023-04-25T07:53:19;14.13;;;2.57;;
4500;SDS011;2263;54.654;9.410;2023-04-25T07:55:46;9.17;;;3.30;;
4500;SDS011;2263;54.654;9.410;2023-04-25T07:58:15;7.20;;;2.07;;
4500;SDS011;2263;54.654;9.410;2023-04-25T08:00:48;10.30;;;2.20;;
4500;SDS011;2263;54.654;9.410;2023-04-25T08:03:15;12.57;;;2.87;;
4500;SDS011;2263;54.654;9.410;2023-04-25T08:05:43;15.70;;;2.30;;
4500;SDS011;2263;54.654;9.410;2023-04-25T08:08:12;7.60;;;2.30;;
4500;SDS011;2263;54.654;9.410;2023-04-25T08:10:43;14.23;;;2.83;;
4500;SDS011;2263;54.654;9.410;2023-04-25T08:13:12;17.67;;;2.27;;
4500;SDS011;2263;54.654;9.410;2023-04-25T08:15:40;15.23;;;2.80;;
4500;SDS011;2263;54.654;9.410;2023-04-25T08:18:08;9.70;;;3.27;;
4500;SDS011;2263;54.654;9.410;2023-04-25T08:20:36;12.13;;;2.17;;
4500;SDS011;2263;54.654;9.410;2023-04-25T08:23:03;13.23;;;2.50;;
4500;SDS011;2263;54.654;9.410;2023-04-25T08:25:31;13.40;;;2.90;;
4500;SDS011;2263;54.654;9.410;2023-04-25T08:27:58;12.60;;;3.20;;
4500;SDS011;2263;54.654;9.410;2023-04-25T08:30:29;17.37;;;3.40;;
4500;SDS011;2263;54.654;9.410;2023-04-25T08:32:57;15.43;;;2.40;;
4500;SDS011;2263;54.654;9.410;2023-04-25T08:35:25;11.43;;;2.03;;
4500;SDS011;2263;54.654;9.410;2023-04-25T08:37:52;5.60;;;2.30;;
4500;SDS011;2263;54.654;9.410;2023-04-25T08:40:20;9.77;;;2.80;;
4500;SDS011;2263;54.654;9.410;2023-04-25T08:42:58;13.10;;;3.90;;
4500;SDS011;2263;54.654;9.410;2023-04-25T08:45:27;9.80;;;3.30;;
4500;SDS011;2263;54.654;9.410;2023-04-25T08:47:57;7.60;;;2.00;;
4500;SDS011;2263;54.654;9.410;2023-04-25T08:50:25;13.73;;;2.43;;
4500;SDS011;2263;54.654;9.410;2023-04-25T08:52:53;13.70;;;2.50;;
4500;SDS011;2263;54.654;9.410;2023-04-25T08:55:22;5.83;;;2.30;;
4500;SDS011;2263;54.654;9.410;2023-04-25T08:57:51;15.43;;;4.20;;
4500;SDS011;2263;54.654;9.410;2023-04-25T09:00:20;6.57;;;2.23;;
4500;SDS011;2263;54.654;9.410;2023-04-25T09:02:51;8.13;;;2.17;;
4500;SDS011;2263;54.654;9.410;2023-04-25T09:05:20;10.87;;;2.23;;
4500;SDS011;2263;54.654;9.410;2023-04-25T09:07:49;9.00;;;2.43;;
4500;SDS011;2263;54.654;9.410;2023-04-25T09:10:17;6.67;;;2.00;;
4500;SDS011;2263;54.654;9.410;2023-04-25T09:13:00;6.53;;;2.23;;
4500;SDS011;2263;54.654;9.410;2023-04-25T09:15:33;11.03;;;2.07;;
4500;SDS011;2263;54.654;9.410;2023-04-25T09:18:13;9.73;;;2.20;;
4500;SDS011;2263;54.654;9.410;2023-04-25T09:20:41;9.53;;;2.53;;
4500;SDS011;2263;54.654;9.410;2023-04-25T09:23:14;9.27;;;2.30;;
4500;SDS011;2263;54.654;9.410;2023-04-25T09:25:41;17.07;;;2.47;;
4500;SDS011;2263;54.654;9.410;2023-04-25T09:28:10;16.10;;;2.73;;
4500;SDS011;2263;54.654;9.410;2023-04-25T09:30:38;8.70;;;3.40;;
4500;SDS011;2263;54.654;9.410;2023-04-25T09:33:06;14.90;;;3.47;;
4500;SDS011;2263;54.654;9.410;2023-04-25T09:35:35;7.13;;;1.60;;
4500;SDS011;2263;54.654;9.410;2023-04-25T09:38:13;7.80;;;3.37;;
4500;SDS011;2263;54.654;9.410;2023-04-25T09:40:42;10.83;;;2.33;;
4500;SDS011;2263;54.654;9.410;2023-04-25T09:43:20;12.73;;;2.87;;
4500;SDS011;2263;54.654;9.410;2023-04-25T09:45:49;13.77;;;2.50;;
4500;SDS011;2263;54.654;9.410;2023-04-25T09:48:21;6.20;;;2.30;;
4500;SDS011;2263;54.654;9.410;2023-04-25T09:51:05;10.63;;;2.33;;
4500;SDS011;2263;54.654;9.410;2023-04-25T09:53:34;12.27;;;2.40;;
4500;SDS011;2263;54.654;9.410;2023-04-25T09:56:06;7.17;;;1.83;;
4500;SDS011;2263;54.654;9.410;2023-04-25T09:58:36;9.70;;;2.43;;
4500;SDS011;2263;54.654;9.410;2023-04-25T10:01:06;9.00;;;3.30;;
4500;SDS011;2263;54.654;9.410;2023-04-25T10:03:36;6.73;;;2.10;;
4500;SDS011;2263;54.654;9.410;2023-04-25T10:06:12;8.77;;;3.43;;
4500;SDS011;2263;54.654;9.410;2023-04-25T10:08:44;10.83;;;2.53;;
4500;SDS011;2263;54.654;9.410;2023-04-25T10:11:14;10.07;;;2.10;;
4500;SDS011;2263;54.654;9.410;2023-04-25T10:13:43;12.03;;;2.50;;
4500;SDS011;2263;54.654;9.410;2023-04-25T10:16:12;7.90;;;1.87;;
4500;SDS011;2263;54.654;9.410;2023-04-25T10:18:40;9.40;;;3.33;;
4500;SDS011;2263;54.654;9.410;2023-04-25T10:21:07;13.07;;;2.20;;
4500;SDS011;2263;54.654;9.410;2023-04-25T10:23:35;9.23;;;2.00;;
4500;SDS011;2263;54.654;9.410;2023-04-25T10:26:04;9.73;;;1.93;;
4500;SDS011;2263;54.654;9.410;2023-04-25T10:28:54;6.20;;;1.60;;
4500;SDS011;2263;54.654;9.410;2023-04-25T10:31:29;7.83;;;2.97;;
4500;SDS011;2263;54.654;9.410;2023-04-25T10:33:59;11.83;;;2.23;;
4500;SDS011;2263;54.654;9.410;2023-04-25T10:36:30;13.10;;;2.10;;
4500;SDS011;2263;54.654;9.410;2023-04-25T10:39:02;10.70;;;1.97;;
4500;SDS011;2263;54.654;9.410;2023-04-25T10:41:45;7.63;;;2.23;;
4500;SDS011;2263;54.654;9.410;2023-04-25T10:44:14;5.87;;;1.40;;
4500;SDS011;2263;54.654;9.410;2023-04-25T10:46:43;9.57;;;1.67;;
4500;SDS011;2263;54.654;9.410;2023-04-25T10:49:28;5.57;;;2.70;;
4500;SDS011;2263;54.654;9.410;2023-04-25T10:52:16;6.77;;;2.00;;
4500;SDS011;2263;54.654;9.410;2023-04-25T10:54:47;6.63;;;2.23;;
4500;SDS011;2263;54.654;9.410;2023-04-25T11:00:14;4.47;;;2.53;;
4500;SDS011;2263;54.654;9.410;2023-04-25T11:02:59;4.30;;;3.13;;
4500;SDS011;2263;54.654;9.410;2023-04-25T11:05:32;12.10;;;2.47;;
4500;SDS011;2263;54.654;9.410;2023-04-25T11:08:12;11.47;;;2.70;;
4500;SDS011;2263;54.654;9.410;2023-04-25T11:10:44;7.60;;;3.07;;
4500;SDS011;2263;54.654;9.410;2023-04-25T11:13:16;8.70;;;2.40;;
4500;SDS011;2263;54.654;9.410;2023-04-25T11:15:51;5.80;;;2.00;;
4500;SDS011;2263;54.654;9.410;2023-04-25T11:18:40;17.70;;;3.07;;
4500;SDS011;2263;54.654;9.410;2023-04-25T11:21:09;10.50;;;2.17;;
4500;SDS011;2263;54.654;9.410;2023-04-25T11:23:37;13.60;;;3.57;;
4500;SDS011;2263;54.654;9.410;2023-04-25T11:26:05;11.47;;;3.50;;
4500;SDS011;2263;54.654;9.410;2023-04-25T11:28:32;6.33;;;1.80;;
4500;SDS011;2263;54.654;9.410;2023-04-25T11:31:00;9.20;;;2.20;;
4500;SDS011;2263;54.654;9.410;2023-04-25T11:33:31;9.07;;;2.00;;
4500;SDS011;2263;54.654;9.410;2023-04-25T11:35:58;6.57;;;1.53;;
4500;SDS011;2263;54.654;9.410;2023-04-25T11:38:26;9.73;;;2.63;;
4500;SDS011;2263;54.654;9.410;2023-04-25T11:40:55;7.43;;;2.20;;
4500;SDS011;2263;54.654;9.410;2023-04-25T11:43:22;12.50;;;3.27;;
4500;SDS011;2263;54.654;9.410;2023-04-25T11:45:50;8.10;;;2.50;;
4500;SDS011;2263;54.654;9.410;2023-04-25T11:48:19;12.73;;;2.57;;
4500;SDS011;2263;54.654;9.410;2023-04-25T11:50:51;8.57;;;2.10;;
4500;SDS011;2263;54.654;9.410;2023-04-25T11:53:21;15.40;;;4.67;;
4500;SDS011;2263;54.654;9.410;2023-04-25T11:55:51;5.97;;;2.20;;
4500;SDS011;2263;54.654;9.410;2023-04-25T11:58:19;10.00;;;2.33;;
4500;SDS011;2263;54.654;9.410;2023-04-25T12:00:47;9.50;;;2.00;;
4500;SDS011;2263;54.654;9.410;2023-04-25T12:03:17;9.30;;;3.33;;
4500;SDS011;2263;54.654;9.410;2023-04-25T12:05:46;15.30;;;2.63;;
4500;SDS011;2263;54.654;9.410;2023-04-25T12:08:14;6.93;;;2.63;;
4500;SDS011;2263;54.654;9.410;2023-04-25T12:10:43;13.13;;;3.07;;
4500;SDS011;2263;54.654;9.410;2023-04-25T12:15:47;7.70;;;2.03;;
4500;SDS011;2263;54.654;9.410;2023-04-25T12:18:18;11.73;;;2.00;;
4500;SDS011;2263;54.654;9.410;2023-04-25T12:20:47;8.80;;;2.20;;
4500;SDS011;2263;54.654;9.410;2023-04-25T12:23:15;4.57;;;1.60;;
4500;SDS011;2263;54.654;9.410;2023-04-25T12:25:43;8.40;;;1.70;;
4500;SDS011;2263;54.654;9.410;2023-04-25T12:28:17;8.07;;;2.90;;
4500;SDS011;2263;54.654;9.410;2023-04-25T12:30:59;16.90;;;2.80;;
4500;SDS011;2263;54.654;9.410;2023-04-25T12:33:34;14.60;;;3.50;;
4500;SDS011;2263;54.654;9.410;2023-04-25T12:36:03;9.10;;;1.87;;
4500;SDS011;2263;54.654;9.410;2023-04-25T12:38:36;10.37;;;2.67;;
4500;SDS011;2263;54.654;9.410;2023-04-25T12:41:05;8.20;;;1.90;;
4500;SDS011;2263;54.654;9.410;2023-04-25T12:43:33;21.97;;;2.87;;
4500;SDS011;2263;54.654;9.410;2023-04-25T12:46:01;9.43;;;2.53;;
4500;SDS011;2263;54.654;9.410;2023-04-25T12:48:29;7.07;;;2.40;;
4500;SDS011;2263;54.654;9.410;2023-04-25T12:50:58;11.07;;;2.13;;
4500;SDS011;2263;54.654;9.410;2023-04-25T12:53:25;9.07;;;1.93;;
4500;SDS011;2263;54.654;9.410;2023-04-25T12:55:53;4.17;;;1.93;;
4500;SDS011;2263;54.654;9.410;2023-04-25T12:58:25;8.63;;;3.20;;
4500;SDS011;2263;54.654;9.410;2023-04-25T13:00:53;8.20;;;1.97;;
4500;SDS011;2263;54.654;9.410;2023-04-25T13:03:20;14.20;;;2.50;;
4500;SDS011;2263;54.654;9.410;2023-04-25T13:05:49;6.83;;;2.87;;
4500;SDS011;2263;54.654;9.410;2023-04-25T13:08:19;8.67;;;2.47;;
4500;SDS011;2263;54.654;9.410;2023-04-25T13:10:47;4.40;;;1.97;;
4500;SDS011;2263;54.654;9.410;2023-04-25T13:13:15;15.07;;;2.00;;
4500;SDS011;2263;54.654;9.410;2023-04-25T13:15:43;9.53;;;2.43;;
4500;SDS011;2263;54.654;9.410;2023-04-25T13:18:11;5.93;;;2.20;;
4500;SDS011;2263;54.654;9.410;2023-04-25T13:20:39;7.43;;;1.90;;
4500;SDS011;2263;54.654;9.410;2023-04-25T13:23:07;5.07;;;1.50;;
4500;SDS011;2263;54.654;9.410;2023-04-25T13:25:34;7.17;;;1.67;;
4500;SDS011;2263;54.654;9.410;2023-04-25T13:28:02;9.27;;;2.77;;
4500;SDS011;2263;54.654;9.410;2023-04-25T13:30:30;12.30;;;1.77;;
4500;SDS011;2263;54.654;9.410;2023-04-25T15:50:14;13.23;;;3.47;;
4500;SDS011;2263;54.654;9.410;2023-04-25T15:52:42;15.33;;;3.07;;
4500;SDS011;2263;54.654;9.410;2023-04-25T15:55:09;9.43;;;2.00;;
4500;SDS011;2263;54.654;9.410;2023-04-25T15:57:39;10.03;;;2.33;;
4500;SDS011;2263;54.654;9.410;2023-04-25T16:00:08;11.60;;;2.90;;
4500;SDS011;2263;54.654;9.410;2023-04-25T16:02:39;15.43;;;3.00;;
4500;SDS011;2263;54.654;9.410;2023-04-25T16:05:09;8.80;;;2.00;;
4500;SDS011;2263;54.654;9.410;2023-04-25T16:07:40;7.50;;;2.03;;
4500;SDS011;2263;54.654;9.410;2023-04-25T16:10:10;6.70;;;2.03;;
4500;SDS011;2263;54.654;9.410;2023-04-25T16:12:38;9.07;;;2.10;;
4500;SDS011;2263;54.654;9.410;2023-04-25T16:15:07;7.33;;;1.43;;
4500;SDS011;2263;54.654;9.410;2023-04-25T16:17:35;8.50;;;1.90;;
4500;SDS011;2263;54.654;9.410;2023-04-25T16:20:03;9.53;;;2.90;;
4500;SDS011;2263;54.654;9.410;2023-04-25T16:22:38;11.90;;;1.57;;
4500;SDS011;2263;54.654;9.410;2023-04-25T16:25:06;10.23;;;2.43;;
4500;SDS011;2263;54.654;9.410;2023-04-25T16:27:35;6.53;;;1.83;;
4500;SDS011;2263;54.654;9.410;2023-04-25T16:30:06;4.17;;;2.70;;
4500;SDS011;2263;54.654;9.410;2023-04-25T16:32:36;17.00;;;3.80;;
4500;SDS011;2263;54.654;9.410;2023-04-25T16:35:05;6.43;;;1.50;;
4500;SDS011;2263;54.654;9.410;2023-04-25T16:37:34;3.73;;;1.73;;
4500;SDS011;2263;54.654;9.410;2023-04-25T16:40:02;5.30;;;1.50;;
4500;SDS011;2263;54.654;9.410;2023-04-25T16:42:30;6.90;;;1.37;;
4500;SDS011;2263;54.654;9.410;2023-04-25T16:44:57;5.60;;;1.73;;
4500;SDS011;2263;54.654;9.410;2023-04-25T16:47:25;7.97;;;2.47;;
4500;SDS011;2263;54.654;9.410;2023-04-25T16:49:52;9.33;;;1.93;;
4500;SDS011;2263;54.654;9.410;2023-04-25T16:52:20;4.43;;;1.47;;
4500;SDS011;2263;54.654;9.410;2023-04-25T16:54:49;9.77;;;2.10;;
4500;SDS011;2263;54.654;9.410;2023-04-25T16:57:17;8.07;;;1.93;;
4500;SDS011;2263;54.654;9.410;2023-04-25T16:59:44;4.67;;;1.47;;
4500;SDS011;2263;54.654;9.410;2023-04-25T17:02:12;5.80;;;1.43;;
4500;SDS011;2263;54.654;9.410;2023-04-25T17:04:40;7.83;;;1.50;;
4500;SDS011;2263;54.654;9.410;2023-04-25T17:07:08;5.17;;;0.93;;
4500;SDS011;2263;54.654;9.410;2023-04-25T17:09:35;4.87;;;1.40;;
4500;SDS011;2263;54.654;9.410;2023-04-25T17:12:03;3.20;;;1.07;;
4500;SDS011;2263;54.654;9.410;2023-04-25T17:14:31;11.67;;;1.70;;
4500;SDS011;2263;54.654;9.410;2023-04-25T17:17:01;6.47;;;2.17;;
4500;SDS011;2263;54.654;9.410;2023-04-25T17:19:29;4.00;;;0.80;;
4500;SDS011;2263;54.654;9.410;2023-04-25T17:21:57;7.60;;;2.30;;
4500;SDS011;2263;54.654;9.410;2023-04-25T17:24:25;8.43;;;2.43;;
4500;SDS011;2263;54.654;9.410;2023-04-25T17:26:53;10.30;;;1.70;;
4500;SDS011;2263;54.654;9.410;2023-04-25T17:29:22;8.70;;;1.90;;
4500;SDS011;2263;54.654;9.410;2023-04-25T17:31:49;7.30;;;1.63;;
4500;SDS011;2263;54.654;9.410;2023-04-25T17:34:18;10.07;;;1.43;;
4500;SDS011;2263;54.654;9.410;2023-04-25T17:36:46;6.13;;;2.00;;
4500;SDS011;2263;54.654;9.410;2023-04-25T17:39:14;6.80;;;1.97;;
4500;SDS011;2263;54.654;9.410;2023-04-25T17:41:43;7.93;;;1.80;;
4500;SDS011;2263;54.654;9.410;2023-04-25T17:44:11;7.00;;;2.13;;
4500;SDS011;2263;54.654;9.410;2023-04-25T17:46:39;5.87;;;1.30;;
4500;SDS011;2263;54.654;9.410;2023-04-25T17:49:07;5.30;;;1.50;;
4500;SDS011;2263;54.654;9.410;2023-04-25T17:51:36;10.13;;;1.13;;
4500;SDS011;2263;54.654;9.410;2023-04-25T17:54:04;4.80;;;1.00;;
4500;SDS011;2263;54.654;9.410;2023-04-25T17:56:35;2.40;;;1.23;;
4500;SDS011;2263;54.654;9.410;2023-04-25T17:59:03;4.80;;;1.47;;
4500;SDS011;2263;54.654;9.410;2023-04-25T18:01:31;7.50;;;1.30;;
4500;SDS011;2263;54.654;9.410;2023-04-25T18:03:58;5.67;;;1.83;;
4500;SDS011;2263;54.654;9.410;2023-04-25T18:06:27;10.87;;;1.10;;
4500;SDS011;2263;54.654;9.410;2023-04-25T18:08:55;6.13;;;1.20;;
4500;SDS011;2263;54.654;9.410;2023-04-25T18:11:25;8.90;;;1.60;;
4500;SDS011;2263;54.654;9.410;2023-04-25T18:13:53;4.13;;;1.50;;
4500;SDS011;2263;54.654;9.410;2023-04-25T18:16:21;6.00;;;1.80;;
4500;SDS011;2263;54.654;9.410;2023-04-25T18:18:48;4.00;;;1.33;;
4500;SDS011;2263;54.654;9.410;2023-04-25T18:21:20;4.10;;;0.90;;
4500;SDS011;2263;54.654;9.410;2023-04-25T18:23:48;7.40;;;1.13;;
4500;SDS011;2263;54.654;9.410;2023-04-25T18:26:15;3.00;;;1.47;;
4500;SDS011;2263;54.654;9.410;2023-04-25T18:28:43;4.23;;;1.60;;